Time;durP1;ratioP1;P1;durP2;ratioP2;P2;SDS_P1;SDS_P2;PMS_P1;PMS_P2;Temp;Humidity;BMP_temperature;BMP_pressure;BME280_temperature;BME280_humidity;BME280_pressure;Samples;Min_cycle;Max_cycle;Signal;HPM_P1;HPM_P2
2021/06/11 00:00:17;;;;;;;0.10;0.10;;;19.90;67.80;;;;;;5071216;28;20028;-74
2021/06/11 00:02:43;;;;;;;0.10;0.10;;;19.90;67.20;;;;;;5072523;28;20467;-74
2021/06/11 00:05:09;;;;;;;0.10;0.10;;;19.90;67.50;;;;;;5052975;28;20447;-75
2021/06/11 00:07:35;;;;;;;0.10;0.10;;;19.80;67.80;;;;;;5051788;28;20104;-74
2021/06/11 00:10:06;;;;;;;0.08;0.08;;;19.80;68.40;;;;;;5037748;28;20041;-74
2021/06/11 00:12:32;;;;;;;0.10;0.10;;;19.80;68.00;;;;;;5037629;28;20026;-74
2021/06/11 00:14:58;;;;;;;0.10;0.10;;;19.70;68.20;;;;;;5037552;28;20037;-74
2021/06/11 00:17:24;;;;;;;0.10;0.10;;;19.60;68.40;;;;;;5037389;28;20025;-74
2021/06/11 00:19:50;;;;;;;0.10;0.10;;;19.70;68.20;;;;;;5036043;28;20032;-74
2021/06/11 00:22:16;;;;;;;0.10;0.10;;;19.60;68.20;;;;;;5037380;28;20029;-74
2021/06/11 00:24:41;;;;;;;0.10;0.10;;;19.50;68.50;;;;;;5037324;28;20025;-74
2021/06/11 00:27:07;;;;;;;0.10;0.10;;;19.50;68.80;;;;;;5039324;28;20128;-74
2021/06/11 00:29:33;;;;;;;0.10;0.10;;;19.40;68.60;;;;;;5057240;28;20112;-74
2021/06/11 00:31:58;;;;;;;0.10;0.10;;;19.40;68.60;;;;;;5044019;28;20208;-74
2021/06/11 00:34:24;;;;;;;0.10;0.10;;;19.40;68.80;;;;;;5037277;28;20033;-74
2021/06/11 00:36:50;;;;;;;0.10;0.10;;;19.40;68.50;;;;;;5037081;28;20052;-74
2021/06/11 00:39:15;;;;;;;0.10;0.10;;;19.30;69.00;;;;;;5037008;28;20036;-74
2021/06/11 00:41:41;;;;;;;0.20;0.10;;;19.30;68.70;;;;;;5035868;28;20572;-74
2021/06/11 00:44:08;;;;;;;0.10;0.10;;;19.30;69.00;;;;;;5036565;28;20025;-74
2021/06/11 00:46:34;;;;;;;0.10;0.10;;;19.30;69.00;;;;;;5037108;28;20431;-74
2021/06/11 00:48:59;;;;;;;0.10;0.10;;;19.30;69.10;;;;;;5048094;28;20056;-74
2021/06/11 00:51:25;;;;;;;0.10;0.10;;;19.20;69.30;;;;;;5089132;28;20067;-74
2021/06/11 00:53:52;;;;;;;0.10;0.10;;;19.20;68.80;;;;;;5056863;28;20090;-74
2021/06/11 00:56:18;;;;;;;0.10;0.10;;;19.20;69.10;;;;;;5055318;28;20049;-75
2021/06/11 00:58:44;;;;;;;0.17;0.13;;;19.20;69.20;;;;;;5059156;28;20119;-74
2021/06/11 01:01:10;;;;;;;0.10;0.10;;;19.20;68.60;;;;;;5076522;28;20025;-74
2021/06/11 01:03:36;;;;;;;0.10;0.10;;;19.30;69.00;;;;;;5076566;28;20028;-74
2021/06/11 01:06:01;;;;;;;0.10;0.10;;;19.30;69.00;;;;;;5063565;28;20486;-74
2021/06/11 01:08:27;;;;;;;0.10;0.10;;;19.30;69.20;;;;;;5056525;28;20395;-74
2021/06/11 01:10:55;;;;;;;0.10;0.10;;;19.20;69.60;;;;;;5055107;28;20078;-74
2021/06/11 01:13:21;;;;;;;0.10;0.10;;;19.20;69.70;;;;;;5054115;28;20032;-74
2021/06/11 01:15:49;;;;;;;0.10;0.10;;;19.20;70.00;;;;;;5036511;28;20029;-75
2021/06/11 01:18:15;;;;;;;0.10;0.10;;;19.10;70.10;;;;;;5038387;28;20037;-73
2021/06/11 01:20:42;;;;;;;0.10;0.10;;;19.10;69.90;;;;;;5054845;28;20029;-74
2021/06/11 01:23:41;;;;;;;0.10;0.10;;;19.20;70.20;;;;;;5054792;28;20037;-74
2021/06/11 01:26:32;;;;;;;0.10;0.10;;;19.10;70.20;;;;;;5053603;28;20025;-74
2021/06/11 01:29:07;;;;;;;0.10;0.10;;;19.10;70.70;;;;;;5088353;28;20061;-74
2021/06/11 01:31:36;;;;;;;0.10;0.10;;;19.20;70.10;;;;;;5088429;28;20032;-74
2021/06/11 01:34:08;;;;;;;0.10;0.10;;;19.20;70.60;;;;;;5040169;28;20028;-74
2021/06/11 01:36:40;;;;;;;0.10;0.10;;;19.10;70.60;;;;;;5036080;28;20040;-74
2021/06/11 01:39:08;;;;;;;0.10;0.10;;;19.10;70.60;;;;;;5034629;28;20017;-74
2021/06/11 01:41:37;;;;;;;0.10;0.10;;;19.10;70.60;;;;;;5035888;28;20025;-74
2021/06/11 01:44:04;;;;;;;0.10;0.10;;;19.10;71.00;;;;;;5034505;28;20566;-74
2021/06/11 01:46:33;;;;;;;0.10;0.10;;;19.10;70.60;;;;;;5034544;28;20078;-74
2021/06/11 01:49:00;;;;;;;0.10;0.10;;;19.20;70.30;;;;;;5035502;28;20036;-74
2021/06/11 01:51:27;;;;;;;0.10;0.10;;;19.20;70.50;;;;;;5034519;28;20029;-74
2021/06/11 01:53:54;;;;;;;0.10;0.10;;;19.20;70.60;;;;;;5038219;28;20032;-74
2021/06/11 01:56:21;;;;;;;0.10;0.10;;;19.20;70.20;;;;;;5055097;28;20457;-74
2021/06/11 01:58:47;;;;;;;0.10;0.10;;;19.20;70.00;;;;;;5057733;28;20028;-74
2021/06/11 02:01:14;;;;;;;0.10;0.10;;;19.20;70.00;;;;;;5035599;28;20036;-74
2021/06/11 02:03:41;;;;;;;0.20;0.10;;;19.20;70.00;;;;;;5035586;28;20476;-74
2021/06/11 02:06:08;;;;;;;0.10;0.10;;;19.20;70.10;;;;;;5035677;28;20025;-74
2021/06/11 02:08:34;;;;;;;0.10;0.10;;;19.10;70.40;;;;;;5035471;28;20025;-74
2021/06/11 02:11:00;;;;;;;0.10;0.10;;;19.10;70.20;;;;;;5035540;28;20045;-74
2021/06/11 02:13:27;;;;;;;0.10;0.10;;;19.20;70.10;;;;;;5035478;28;20510;-74
2021/06/11 02:15:54;;;;;;;0.10;0.10;;;19.10;70.90;;;;;;5049680;28;20030;-74
2021/06/11 02:18:21;;;;;;;0.10;0.10;;;19.10;70.50;;;;;;5035420;28;20030;-74
2021/06/11 02:20:48;;;;;;;0.10;0.10;;;19.20;70.60;;;;;;5035270;28;20480;-74
2021/06/11 02:23:14;;;;;;;0.10;0.10;;;19.10;70.10;;;;;;5035446;28;20022;-74
2021/06/11 02:25:40;;;;;;;0.10;0.10;;;19.20;70.50;;;;;;5034065;28;20026;-74
2021/06/11 02:28:06;;;;;;;0.10;0.10;;;19.20;70.70;;;;;;5045392;28;20025;-74
2021/06/11 02:30:31;;;;;;;0.10;0.10;;;19.20;71.00;;;;;;5087361;28;20120;-73
2021/06/11 02:32:57;;;;;;;0.10;0.10;;;19.20;70.90;;;;;;5044152;28;20060;-73
2021/06/11 02:35:25;;;;;;;0.10;0.10;;;19.20;70.70;;;;;;5035187;28;20040;-72
2021/06/11 02:37:54;;;;;;;0.10;0.10;;;19.10;71.00;;;;;;5035374;28;20817;-72
2021/06/11 02:40:20;;;;;;;0.10;0.10;;;19.10;71.30;;;;;;5035303;28;20032;-73
2021/06/11 02:42:50;;;;;;;0.10;0.10;;;19.00;71.00;;;;;;5053201;28;20029;-73
2021/06/11 02:45:24;;;;;;;0.10;0.10;;;19.10;71.20;;;;;;5055072;28;20032;-73
2021/06/11 02:48:04;;;;;;;0.10;0.10;;;19.10;71.30;;;;;;5042505;28;20033;-73
2021/06/11 02:50:35;;;;;;;0.20;0.20;;;19.10;71.40;;;;;;5035113;28;20426;-73
2021/06/11 02:53:03;;;;;;;0.10;0.10;;;19.10;70.70;;;;;;5034985;28;20029;-73
2021/06/11 02:55:30;;;;;;;0.10;0.10;;;19.00;71.60;;;;;;5034942;28;20092;-73
2021/06/11 02:58:18;;;;;;;0.10;0.10;;;19.00;71.50;;;;;;5049130;28;20048;-73
2021/06/11 03:00:45;;;;;;;0.10;0.10;;;19.00;71.50;;;;;;5035300;28;20119;-72
2021/06/11 03:03:28;;;;;;;0.10;0.10;;;19.00;71.50;;;;;;5035168;28;20068;-73
2021/06/11 03:05:59;;;;;;;0.10;0.10;;;19.10;71.20;;;;;;5035846;28;20029;-73
2021/06/11 03:08:30;;;;;;;0.10;0.10;;;19.10;71.10;;;;;;5045313;28;20024;-73
2021/06/11 03:11:03;;;;;;;0.10;0.10;;;19.10;71.00;;;;;;5058696;28;20025;-73
2021/06/11 03:13:31;;;;;;;0.10;0.10;;;19.10;70.50;;;;;;5055069;28;20136;-72
2021/06/11 03:15:59;;;;;;;0.10;0.10;;;19.10;71.10;;;;;;5053953;28;20056;-73
2021/06/11 03:18:33;;;;;;;0.10;0.10;;;19.10;71.20;;;;;;5041917;28;20013;-73
2021/06/11 03:21:17;;;;;;;0.10;0.10;;;19.10;70.90;;;;;;5058619;28;20037;-73
2021/06/11 03:24:11;;;;;;;0.10;0.10;;;19.10;71.10;;;;;;5058553;28;20025;-73
2021/06/11 03:26:51;;;;;;;0.10;0.10;;;19.10;71.10;;;;;;5055881;28;20403;-73
2021/06/11 03:29:22;;;;;;;0.10;0.10;;;19.10;71.20;;;;;;5058540;28;20039;-72
2021/06/11 03:31:52;;;;;;;0.10;0.10;;;19.00;70.90;;;;;;5054307;28;20037;-73
2021/06/11 03:34:26;;;;;;;0.10;0.10;;;19.00;71.60;;;;;;5037149;28;20082;-72
2021/06/11 03:36:55;;;;;;;0.10;0.10;;;18.90;71.50;;;;;;5043945;28;20037;-73
2021/06/11 03:39:44;;;;;;;0.10;0.10;;;18.90;71.30;;;;;;5056816;28;20028;-72
2021/06/11 03:42:11;;;;;;;0.10;0.10;;;18.90;71.50;;;;;;5073176;28;20033;-73
2021/06/11 03:44:43;;;;;;;0.10;0.10;;;18.80;71.30;;;;;;5058138;28;20021;-73
2021/06/11 03:47:13;;;;;;;0.10;0.10;;;18.90;71.30;;;;;;5042787;28;20036;-73
2021/06/11 03:49:44;;;;;;;0.10;0.10;;;18.90;70.80;;;;;;5036668;28;20508;-73
2021/06/11 03:52:12;;;;;;;0.10;0.10;;;18.90;71.30;;;;;;5038124;28;20031;-73
2021/06/11 03:54:43;;;;;;;0.10;0.10;;;18.80;71.10;;;;;;5037721;28;20034;-73
2021/06/11 03:57:09;;;;;;;;;;;18.90;71.30;;;;;;5038362;28;20025;-73
2021/06/11 03:59:36;;;;;;;0.10;0.10;;;18.80;71.60;;;;;;5056245;28;19908;-73
2021/06/11 04:02:04;;;;;;;0.10;0.10;;;18.80;71.40;;;;;;5037895;28;20022;-73
2021/06/11 04:04:30;;;;;;;0.10;0.10;;;18.80;71.30;;;;;;5037733;28;20021;-73
2021/06/11 04:07:03;;;;;;;0.20;0.10;;;18.80;71.70;;;;;;5037818;28;20032;-73
2021/06/11 04:09:37;;;;;;;0.10;0.10;;;18.80;71.60;;;;;;5057498;28;20033;-73
2021/06/11 04:12:07;;;;;;;0.10;0.10;;;18.80;71.30;;;;;;5057563;28;20028;-72
2021/06/11 04:14:43;;;;;;;0.10;0.10;;;18.80;71.60;;;;;;5038817;28;20502;-72
2021/06/11 04:17:15;;;;;;;0.10;0.10;;;18.80;71.70;;;;;;5036986;28;20033;-72
2021/06/11 04:19:45;;;;;;;0.20;0.10;;;18.70;71.80;;;;;;5037149;28;20029;-73
2021/06/11 04:22:13;;;;;;;;;;;18.70;71.70;;;;;;5037733;28;20120;-73
2021/06/11 04:24:47;;;;;;;0.10;0.10;;;18.70;71.80;;;;;;5037481;28;20359;-73
2021/06/11 04:27:13;;;;;;;0.10;0.10;;;18.70;72.00;;;;;;5037194;28;20091;-73
2021/06/11 04:29:39;;;;;;;0.10;0.10;;;18.70;71.80;;;;;;5035999;28;20049;-72
2021/06/11 04:32:06;;;;;;;0.10;0.10;;;18.80;71.30;;;;;;5037251;28;20034;-72
2021/06/11 04:34:32;;;;;;;0.10;0.10;;;18.80;71.10;;;;;;5037843;28;20120;-72
2021/06/11 04:36:57;;;;;;;0.10;0.10;;;18.90;71.50;;;;;;5057132;28;20057;-72
2021/06/11 04:39:25;;;;;;;0.10;0.10;;;18.80;71.30;;;;;;5046445;28;20116;-72
2021/06/11 04:41:51;;;;;;;0.10;0.10;;;18.80;71.10;;;;;;5058753;28;20479;-71
2021/06/11 04:44:16;;;;;;;0.10;0.10;;;18.80;71.20;;;;;;5046888;28;20029;-72
2021/06/11 04:46:42;;;;;;;0.10;0.10;;;18.80;71.50;;;;;;5036980;28;20087;-72
2021/06/11 04:49:08;;;;;;;0.10;0.10;;;18.80;71.90;;;;;;5055014;28;20021;-72
2021/06/11 04:51:37;;;;;;;0.10;0.10;;;18.80;71.60;;;;;;5055634;28;20031;-72
2021/06/11 04:54:03;;;;;;;0.10;0.10;;;18.80;71.80;;;;;;5056880;28;20051;-72
2021/06/11 04:56:29;;;;;;;0.10;0.10;;;18.80;71.90;;;;;;5056421;28;20502;-71
2021/06/11 04:58:55;;;;;;;0.10;0.10;;;18.80;71.80;;;;;;5049311;28;20024;-73
2021/06/11 05:01:21;;;;;;;0.10;0.10;;;18.80;71.70;;;;;;5046882;28;20032;-71
2021/06/11 05:03:47;;;;;;;0.10;0.10;;;18.70;72.20;;;;;;5036712;28;20021;-73
2021/06/11 05:06:13;;;;;;;0.10;0.10;;;18.80;71.80;;;;;;5036598;28;20064;-73
2021/06/11 05:08:40;;;;;;;0.10;0.10;;;18.80;71.90;;;;;;5048023;28;20029;-74
2021/06/11 05:11:06;;;;;;;0.10;0.10;;;18.80;71.90;;;;;;5056557;28;20017;-74
2021/06/11 05:13:32;;;;;;;0.10;0.10;;;18.80;71.60;;;;;;5042367;28;20033;-74
2021/06/11 05:15:58;;;;;;;0.10;0.10;;;18.80;71.40;;;;;;5036482;28;20029;-74
2021/06/11 05:18:28;;;;;;;0.10;0.10;;;18.80;71.40;;;;;;5036389;28;20025;-74
2021/06/11 05:20:54;;;;;;;;;;;18.80;71.10;;;;;;5036733;28;20511;-74
2021/06/11 05:23:20;;;;;;;0.10;0.10;;;18.80;70.80;;;;;;5036360;28;20294;-77
2021/06/11 05:25:47;;;;;;;0.10;0.10;;;18.90;70.70;;;;;;5035189;28;20029;-74
2021/06/11 05:28:13;;;;;;;0.10;0.10;;;18.80;70.50;;;;;;5036305;28;20032;-74
2021/06/11 05:30:39;;;;;;;0.10;0.10;;;18.80;70.50;;;;;;5042894;28;20025;-74
2021/06/11 05:33:05;;;;;;;0.10;0.10;;;18.80;70.70;;;;;;5051850;28;20047;-74
2021/06/11 05:35:31;;;;;;;0.10;0.10;;;18.70;71.00;;;;;;5042538;28;20020;-73
2021/06/11 05:38:00;;;;;;;0.10;0.10;;;18.80;70.70;;;;;;5055695;28;20071;-74
2021/06/11 05:40:26;;;;;;;0.10;0.10;;;18.80;70.70;;;;;;5041959;28;20029;-74
2021/06/11 05:42:52;;;;;;;0.10;0.10;;;18.80;70.60;;;;;;5038951;28;20013;-74
2021/06/11 05:45:17;;;;;;;0.10;0.10;;;18.80;70.50;;;;;;5055809;28;20040;-74
2021/06/11 05:47:43;;;;;;;0.10;0.10;;;18.90;70.20;;;;;;5053001;28;20040;-74
2021/06/11 05:50:09;;;;;;;0.10;0.10;;;19.00;69.90;;;;;;5035670;28;20029;-71
2021/06/11 05:52:35;;;;;;;0.10;0.10;;;19.00;69.60;;;;;;5047368;28;20447;-72
2021/06/11 05:55:05;;;;;;;0.10;0.10;;;19.10;69.90;;;;;;5055744;28;20507;-72
2021/06/11 05:57:31;;;;;;;0.10;0.10;;;19.20;69.40;;;;;;5054270;28;20060;-71
2021/06/11 05:59:57;;;;;;;0.10;0.10;;;19.30;69.00;;;;;;5063022;28;20050;-72
2021/06/11 06:02:23;;;;;;;0.10;0.10;;;19.50;68.70;;;;;;5034405;28;20519;-74
2021/06/11 06:04:49;;;;;;;0.20;0.10;;;19.50;68.60;;;;;;5035389;28;20026;-74
2021/06/11 06:07:15;;;;;;;0.10;0.10;;;19.60;68.60;;;;;;5039835;28;20055;-75
2021/06/11 06:09:41;;;;;;;0.10;0.10;;;19.60;68.20;;;;;;5040689;28;20033;-73
2021/06/11 06:12:08;;;;;;;0.10;0.10;;;19.50;68.20;;;;;;5049919;28;20044;-72
2021/06/11 06:14:33;;;;;;;0.10;0.10;;;19.40;68.50;;;;;;5045806;28;20032;-72
2021/06/11 06:16:59;;;;;;;0.20;0.10;;;19.40;68.70;;;;;;5049243;28;20042;-72
2021/06/11 06:19:25;;;;;;;0.10;0.10;;;19.40;68.60;;;;;;5046108;28;20025;-72
2021/06/11 06:21:51;;;;;;;0.10;0.10;;;19.30;68.60;;;;;;5050911;28;20032;-72
2021/06/11 06:24:17;;;;;;;0.10;0.10;;;19.50;68.70;;;;;;5060600;28;20029;-72
2021/06/11 06:26:43;;;;;;;0.10;0.10;;;19.40;68.90;;;;;;5049252;28;20455;-73
2021/06/11 06:29:08;;;;;;;0.10;0.10;;;19.50;68.60;;;;;;5049463;28;20033;-73
2021/06/11 06:31:34;;;;;;;0.10;0.10;;;19.50;68.30;;;;;;5061830;28;20034;-73
2021/06/11 06:34:00;;;;;;;0.10;0.10;;;19.70;67.90;;;;;;5043171;28;20039;-74
2021/06/11 06:36:26;;;;;;;0.10;0.10;;;20.00;67.30;;;;;;5047609;28;20099;-73
2021/06/11 06:38:54;;;;;;;0.10;0.10;;;20.20;66.60;;;;;;5047695;28;20033;-72
2021/06/11 06:41:20;;;;;;;0.10;0.10;;;20.30;66.10;;;;;;5047875;28;20475;-71
2021/06/11 06:43:45;;;;;;;0.10;0.10;;;20.40;65.90;;;;;;5055600;28;20055;-72
2021/06/11 06:46:11;;;;;;;0.17;0.10;;;20.40;66.00;;;;;;5071191;28;20120;-72
2021/06/11 06:48:37;;;;;;;0.10;0.10;;;20.60;65.50;;;;;;5053109;28;20036;-72
2021/06/11 06:51:03;;;;;;;0.10;0.10;;;20.60;65.50;;;;;;5048873;28;20025;-74
2021/06/11 06:53:29;;;;;;;0.10;0.10;;;20.80;65.20;;;;;;5051409;28;20033;-74
2021/06/11 06:55:55;;;;;;;0.10;0.10;;;20.90;64.70;;;;;;5048795;28;20041;-73
2021/06/11 06:58:20;;;;;;;0.10;0.10;;;21.00;64.40;;;;;;5045275;28;20037;-73
2021/06/11 07:00:46;;;;;;;0.10;0.10;;;20.90;64.40;;;;;;5056237;28;20116;-74
2021/06/11 07:03:12;;;;;;;0.10;0.10;;;21.00;64.20;;;;;;5050819;28;20032;-73
2021/06/11 07:09:20;;;;;;;0.10;0.10;;;21.20;63.50;;;;;;5111789;27;20477;-72
2021/06/11 07:11:51;;;;;;;0.10;0.10;;;21.30;63.60;;;;;;5072484;28;20077;-73
2021/06/11 07:14:17;;;;;;;0.00;0.00;;;21.60;62.90;;;;;;5085983;28;20103;-73
2021/06/11 07:16:44;;;;;;;0.10;0.10;;;21.80;62.40;;;;;;5090846;28;20029;-73
2021/06/11 07:19:09;;;;;;;0.10;0.10;;;21.80;61.80;;;;;;5091403;28;20024;-73
2021/06/11 07:21:35;;;;;;;0.10;0.10;;;22.00;61.20;;;;;;5091853;28;20029;-74
2021/06/11 07:24:01;;;;;;;0.05;0.05;;;22.60;59.80;;;;;;5084697;28;20036;-73
2021/06/11 07:26:26;;;;;;;0.00;0.00;;;22.90;58.00;;;;;;5091600;28;20020;-74
2021/06/11 07:28:52;;;;;;;0.00;0.00;;;22.60;58.60;;;;;;5090962;28;20028;-74
2021/06/11 07:31:18;;;;;;;0.10;0.10;;;22.40;59.40;;;;;;5107219;28;20085;-74
2021/06/11 07:33:44;;;;;;;0.10;0.10;;;25.00;54.20;;;;;;5107524;28;20056;-74
2021/06/11 07:36:10;;;;;;;0.10;0.10;;;28.20;46.30;;;;;;5091050;28;20398;-74
2021/06/11 07:38:36;;;;;;;0.00;0.00;;;30.80;41.70;;;;;;5091640;28;20025;-74
2021/06/11 07:41:02;;;;;;;0.00;0.00;;;32.70;37.50;;;;;;5091769;28;20703;-74
2021/06/11 07:43:27;;;;;;;0.00;0.00;;;34.00;35.20;;;;;;5091110;28;20036;-74
2021/06/11 07:45:53;;;;;;;0.00;0.00;;;34.80;33.60;;;;;;5091533;28;20031;-74
2021/06/11 07:48:19;;;;;;;0.00;0.00;;;35.60;32.50;;;;;;5090999;28;20067;-74
2021/06/11 07:50:44;;;;;;;0.00;0.00;;;36.50;30.90;;;;;;5090856;28;20076;-75
2021/06/11 07:53:10;;;;;;;0.00;0.00;;;36.90;29.70;;;;;;5090467;28;20136;-75
2021/06/11 07:55:36;;;;;;;0.00;0.00;;;36.70;29.20;;;;;;5101164;28;20081;-74
2021/06/11 07:58:02;;;;;;;0.00;0.00;;;36.00;29.70;;;;;;5091405;28;20047;-74
2021/06/11 08:00:31;;;;;;;0.00;0.00;;;33.90;33.10;;;;;;5090910;28;20020;-74
2021/06/11 08:02:58;;;;;;;0.00;0.00;;;33.30;34.00;;;;;;5090817;28;20073;-74
2021/06/11 08:05:25;;;;;;;0.00;0.00;;;34.20;32.70;;;;;;5089790;28;20493;-74
2021/06/11 08:07:51;;;;;;;0.00;0.00;;;34.90;32.10;;;;;;5090401;28;20102;-74
2021/06/11 08:10:17;;;;;;;0.00;0.00;;;36.20;30.50;;;;;;5091899;28;20074;-74
2021/06/11 08:12:43;;;;;;;0.00;0.00;;;37.00;29.10;;;;;;5107537;28;20032;-75
2021/06/11 08:15:09;;;;;;;0.00;0.00;;;37.80;28.30;;;;;;5091227;28;20120;-75
2021/06/11 08:17:35;;;;;;;0.00;0.00;;;37.80;27.90;;;;;;5090309;28;20042;-74
2021/06/11 08:20:00;;;;;;;0.00;0.00;;;37.80;28.10;;;;;;5080797;28;20628;-74
2021/06/11 08:22:26;;;;;;;0.00;0.00;;;38.40;27.60;;;;;;5077653;28;20032;-75
2021/06/11 08:24:52;;;;;;;0.10;0.10;;;38.80;26.80;;;;;;5078209;28;20074;-74
2021/06/11 08:27:17;;;;;;;0.00;0.00;;;39.10;26.80;;;;;;5076719;28;20029;-74
2021/06/11 08:29:43;;;;;;;0.10;0.10;;;39.10;26.80;;;;;;5077432;28;20043;-75
2021/06/11 08:32:09;;;;;;;0.00;0.00;;;39.20;26.80;;;;;;5077767;28;20032;-75
2021/06/11 08:34:39;;;;;;;0.10;0.10;;;39.30;26.80;;;;;;5077507;28;20035;-76
2021/06/11 08:37:07;;;;;;;0.03;0.03;;;39.30;26.70;;;;;;5093376;28;20047;-75
2021/06/11 08:39:34;;;;;;;0.00;0.00;;;39.00;27.50;;;;;;5078005;28;20028;-75
2021/06/11 08:42:00;;;;;;;0.00;0.00;;;39.10;27.10;;;;;;5077266;28;20029;-75
2021/06/11 08:44:27;;;;;;;0.10;0.10;;;39.20;27.00;;;;;;5077204;28;20032;-75
2021/06/11 08:46:54;;;;;;;0.10;0.10;;;39.00;27.30;;;;;;5077922;28;20029;-75
2021/06/11 08:49:24;;;;;;;0.00;0.00;;;39.00;27.10;;;;;;5077661;28;20036;-75
2021/06/11 08:51:59;;;;;;;0.00;0.00;;;39.10;26.90;;;;;;5091770;28;20147;-75
2021/06/11 08:54:26;;;;;;;0.00;0.00;;;39.20;26.90;;;;;;5092476;28;20024;-75
2021/06/11 08:56:53;;;;;;;0.00;0.00;;;39.40;27.30;;;;;;5077699;28;20020;-75
2021/06/11 08:59:19;;;;;;;0.00;0.00;;;39.40;26.80;;;;;;5077446;28;20029;-74
2021/06/11 09:01:45;;;;;;;0.10;0.10;;;39.30;26.80;;;;;;5077486;28;20093;-74
2021/06/11 09:04:10;;;;;;;0.10;0.10;;;39.20;27.40;;;;;;5072106;28;20475;-74
2021/06/11 09:06:36;;;;;;;0.08;0.08;;;39.20;26.60;;;;;;5057295;28;20037;-75
2021/06/11 09:09:03;;;;;;;0.00;0.00;;;39.20;27.00;;;;;;5057030;28;20511;-74
2021/06/11 09:11:31;;;;;;;0.10;0.10;;;39.30;27.70;;;;;;5076247;28;20031;-74
2021/06/11 09:14:09;;;;;;;0.00;0.00;;;39.60;26.60;;;;;;5077309;28;20016;-75
2021/06/11 09:16:51;;;;;;;0.10;0.10;;;39.30;26.50;;;;;;5077445;28;20103;-74
2021/06/11 09:19:20;;;;;;;0.10;0.10;;;39.20;26.80;;;;;;5076424;28;20029;-74
2021/06/11 09:21:47;;;;;;;0.03;0.03;;;39.00;26.70;;;;;;5092563;28;20135;-74
2021/06/11 09:27:07;;;;;;;0.10;0.10;;;39.70;26.00;;;;;;5076687;28;20036;-74
2021/06/11 09:29:38;;;;;;;0.13;0.10;;;39.80;26.60;;;;;;5076904;28;20063;-74
2021/06/11 09:32:26;;;;;;;0.08;0.08;;;39.90;26.40;;;;;;5075903;28;20021;-75
2021/06/11 09:34:57;;;;;;;0.10;0.10;;;40.00;26.30;;;;;;5090582;28;20020;-74
2021/06/11 09:37:26;;;;;;;0.05;0.05;;;40.00;26.50;;;;;;5076818;28;20028;-74
2021/06/11 09:39:54;;;;;;;0.10;0.08;;;40.10;26.00;;;;;;5075204;28;20490;-75
2021/06/11 09:42:26;;;;;;;0.00;0.00;;;40.10;26.50;;;;;;5076041;28;20035;-74
2021/06/11 09:44:57;;;;;;;0.10;0.10;;;40.20;25.80;;;;;;5076623;28;20024;-75
2021/06/11 09:47:52;;;;;;;0.00;0.00;;;40.30;25.70;;;;;;5076777;28;20028;-74
2021/06/11 09:50:24;;;;;;;0.10;0.10;;;40.30;26.20;;;;;;5076108;28;20037;-74
2021/06/11 09:53:04;;;;;;;0.00;0.00;;;40.40;27.00;;;;;;5076024;28;20028;-75
2021/06/11 09:55:51;;;;;;;0.00;0.00;;;40.50;26.50;;;;;;5076274;28;20029;-75
2021/06/11 09:58:20;;;;;;;0.00;0.00;;;40.20;27.20;;;;;;5074516;28;20060;-74
2021/06/11 10:00:52;;;;;;;0.10;0.10;;;40.20;26.50;;;;;;5076309;28;20025;-74
2021/06/11 10:03:29;;;;;;;0.00;0.00;;;39.80;27.30;;;;;;5076296;28;20378;-74
2021/06/11 10:06:01;;;;;;;0.00;0.00;;;39.90;26.40;;;;;;5075514;28;20028;-74
2021/06/11 10:08:28;;;;;;;0.10;0.10;;;40.00;26.30;;;;;;5076024;28;20507;-74
2021/06/11 10:10:58;;;;;;;0.05;0.05;;;39.90;26.20;;;;;;5091514;28;20074;-74
2021/06/11 10:13:24;;;;;;;0.00;0.00;;;39.80;27.30;;;;;;5075707;28;20046;-75
2021/06/11 10:15:55;;;;;;;0.00;0.00;;;39.60;27.00;;;;;;5075446;28;20142;-74
2021/06/11 10:18:21;;;;;;;0.00;0.00;;;39.20;28.00;;;;;;5075966;28;20389;-74
2021/06/11 10:20:49;;;;;;;0.00;0.00;;;39.00;27.70;;;;;;5075917;28;20028;-74
2021/06/11 10:23:17;;;;;;;0.00;0.00;;;38.80;28.00;;;;;;5075709;28;20115;-75
2021/06/11 10:25:44;;;;;;;;;;;38.50;28.20;;;;;;5076067;28;20021;-74
2021/06/11 10:28:39;;;;;;;0.10;0.10;;;38.40;29.00;;;;;;5074274;28;19916;-74
2021/06/11 10:31:10;;;;;;;0.00;0.00;;;38.40;29.40;;;;;;5055415;28;20037;-74
2021/06/11 10:33:45;;;;;;;0.03;0.00;;;37.90;29.80;;;;;;5057780;28;20021;-74
2021/06/11 10:38:53;;;;;;;0.00;0.00;;;37.50;29.70;;;;;;5075943;28;20024;-74
2021/06/11 10:41:19;;;;;;;0.00;0.00;;;36.60;30.90;;;;;;5075609;28;20021;-74
2021/06/11 10:43:45;;;;;;;0.00;0.00;;;35.80;31.90;;;;;;5074796;28;20035;-74
2021/06/11 10:46:25;;;;;;;0.00;0.00;;;35.10;33.00;;;;;;5075729;28;20100;-75
2021/06/11 10:48:57;;;;;;;0.00;0.00;;;34.70;33.70;;;;;;5075458;28;20024;-74
2021/06/11 10:51:37;;;;;;;0.00;0.00;;;34.10;34.20;;;;;;5074939;28;20020;-75
2021/06/11 10:54:15;;;;;;;0.00;0.00;;;33.80;35.50;;;;;;5074350;28;20091;-74
2021/06/11 10:56:56;;;;;;;0.00;0.00;;;33.50;35.30;;;;;;5075355;28;20028;-74
2021/06/11 10:59:34;;;;;;;0.00;0.00;;;33.20;36.20;;;;;;5074854;28;20036;-76
2021/06/11 11:02:00;;;;;;;0.00;0.00;;;32.90;36.30;;;;;;5075433;28;20441;-74
2021/06/11 11:04:47;;;;;;;0.00;0.00;;;32.70;36.70;;;;;;5075158;28;20039;-74
2021/06/11 11:07:29;;;;;;;0.00;0.00;;;32.20;38.70;;;;;;5074874;28;20263;-74
2021/06/11 11:09:58;;;;;;;0.00;0.00;;;32.20;39.00;;;;;;5071751;28;20154;-74
2021/06/11 11:12:31;;;;;;;0.00;0.00;;;31.90;38.20;;;;;;5073542;28;20028;-74
2021/06/11 11:14:59;;;;;;;0.00;0.00;;;31.80;38.60;;;;;;5089141;28;20088;-74
2021/06/11 11:17:25;;;;;;;0.00;0.00;;;31.90;38.80;;;;;;5090353;28;20043;-74
2021/06/11 11:19:59;;;;;;;0.00;0.00;;;31.80;40.10;;;;;;5059273;28;20025;-74
2021/06/11 11:22:38;;;;;;;0.00;0.00;;;31.80;39.10;;;;;;5054268;28;20094;-74
2021/06/11 11:25:15;;;;;;;0.00;0.00;;;31.70;38.70;;;;;;5052123;28;20096;-74
2021/06/11 11:27:46;;;;;;;0.00;0.00;;;31.60;38.90;;;;;;5049286;28;20056;-74
2021/06/11 11:30:12;;;;;;;0.00;0.00;;;31.50;38.80;;;;;;5052689;28;20510;-74
2021/06/11 11:32:38;;;;;;;0.00;0.00;;;31.40;40.00;;;;;;5054180;28;20070;-74
2021/06/11 11:35:05;;;;;;;0.00;0.00;;;31.20;39.90;;;;;;5066613;28;20021;-74
2021/06/11 11:37:32;;;;;;;0.00;0.00;;;31.20;40.70;;;;;;5052596;28;20487;-74
2021/06/11 11:39:59;;;;;;;0.00;0.00;;;31.20;40.40;;;;;;5054120;28;20025;-74
2021/06/11 11:42:25;;;;;;;0.00;0.00;;;31.10;40.70;;;;;;5052023;28;20025;-74
2021/06/11 11:44:50;;;;;;;0.00;0.00;;;31.20;41.00;;;;;;5066671;28;20044;-74
2021/06/11 11:47:16;;;;;;;0.00;0.00;;;31.20;39.70;;;;;;5051443;28;20036;-74
2021/06/11 11:49:42;;;;;;;0.00;0.00;;;31.00;38.60;;;;;;5053831;28;20096;-74
2021/06/11 11:52:08;;;;;;;0.00;0.00;;;30.80;39.40;;;;;;5054193;28;20025;-75
2021/06/11 11:54:34;;;;;;;0.00;0.00;;;30.80;39.40;;;;;;5055030;28;20025;-74
2021/06/11 11:57:00;;;;;;;0.00;0.00;;;30.40;39.90;;;;;;5056656;28;20056;-74
2021/06/11 11:59:27;;;;;;;0.00;0.00;;;30.50;40.70;;;;;;5057642;28;20107;-74
2021/06/11 12:01:53;;;;;;;0.00;0.00;;;30.70;40.60;;;;;;5054987;28;20025;-74
2021/06/11 12:04:18;;;;;;;0.00;0.00;;;30.70;40.40;;;;;;5056920;28;20037;-75
2021/06/11 12:06:45;;;;;;;0.00;0.00;;;30.70;41.30;;;;;;5056515;28;20093;-74
2021/06/11 12:09:11;;;;;;;0.00;0.00;;;30.80;41.20;;;;;;5057187;28;20045;-74
2021/06/11 12:11:36;;;;;;;0.00;0.00;;;30.80;41.50;;;;;;5049517;28;20391;-74
2021/06/11 12:14:03;;;;;;;0.00;0.00;;;30.50;41.00;;;;;;5054584;28;20024;-74
2021/06/11 12:16:30;;;;;;;0.00;0.00;;;30.20;41.50;;;;;;5056519;28;20033;-74
2021/06/11 12:18:56;;;;;;;0.00;0.00;;;30.10;42.20;;;;;;5042891;28;20052;-74
2021/06/11 12:21:21;;;;;;;0.00;0.00;;;30.20;43.20;;;;;;5053726;28;20123;-75
2021/06/11 12:23:48;;;;;;;0.00;0.00;;;30.40;42.30;;;;;;5048559;28;20028;-74
2021/06/11 12:26:13;;;;;;;0.00;0.00;;;30.30;42.80;;;;;;5057633;28;20021;-74
2021/06/11 12:28:39;;;;;;;0.00;0.00;;;30.30;42.10;;;;;;5054782;28;20077;-74
2021/06/11 12:31:05;;;;;;;0.00;0.00;;;30.40;41.30;;;;;;5057851;28;20035;-74
2021/06/11 12:33:31;;;;;;;0.00;0.00;;;30.50;41.30;;;;;;5052861;28;20040;-74
2021/06/11 12:35:56;;;;;;;0.00;0.00;;;30.70;42.30;;;;;;5037891;28;20026;-75
2021/06/11 12:38:23;;;;;;;0.00;0.00;;;30.80;41.70;;;;;;5036463;28;20036;-74
2021/06/11 12:40:49;;;;;;;0.00;0.00;;;30.80;41.40;;;;;;5038320;28;20026;-74
2021/06/11 12:43:18;;;;;;;0.00;0.00;;;30.70;42.10;;;;;;5045146;28;20053;-74
2021/06/11 12:45:44;;;;;;;0.00;0.00;;;30.80;41.00;;;;;;5037921;28;20060;-74
2021/06/11 12:48:15;;;;;;;0.00;0.00;;;30.80;41.00;;;;;;5053032;28;20072;-74
2021/06/11 12:50:41;;;;;;;0.00;0.00;;;30.80;40.50;;;;;;5037598;28;20133;-75
2021/06/11 12:53:07;;;;;;;0.00;0.00;;;30.40;41.40;;;;;;5037897;28;20057;-75
2021/06/11 12:55:35;;;;;;;0.00;0.00;;;30.20;42.00;;;;;;5037579;28;20029;-74
2021/06/11 12:58:01;;;;;;;0.00;0.00;;;30.30;42.90;;;;;;5036195;28;20030;-74
2021/06/11 13:00:27;;;;;;;0.00;0.00;;;30.60;42.00;;;;;;5070797;28;20021;-74
2021/06/11 13:02:53;;;;;;;0.00;0.00;;;30.40;41.70;;;;;;5038146;28;20038;-74